Jena Marie C. — WDD4969 — position and weather

sailwx.info

Track history (hours):
 
Tides and Currents Weather Stations Pressure Air Temp Water Temp Dewpoint Dewpoint Depression Visibility Wind Speed Wind Dir Waves Ship Positions

Jena Marie C.

Owner: Scott C. Marine Towing, LLC, Marrero, LA. More information available from US FCC via Universal Licensing System and Coast Guard Vessel Documentation Center.

Last reported at 2017-Jan-04 12:32 UTC. Time now 2017-Mar-23 14:25 UTC.
Position N 29°56' W 090°12'.
Warning: this ship's position is months out of date.

Length 19 m; draft 2.5 m.

Type: Towing. MMSI: 367151880.

Date/timePositionNaut miles runAvg speedWind from/ knotsBaromVisibWave heightAir tempDewpointWater temp
2017-Jan-04 12:32N 29°56' W 090°12'0 0.0
2017-Jan-04 09:30N 29°56' W 090°12'3 3.3
2017-Jan-04 08:33N 29°57' W 090°09'2 0.0
2017-Jan-02 17:33N 29°56' W 090°08'3 2.9
2017-Jan-02 16:24N 29°56' W 090°12'0 0.3
2017-Jan-02 15:33N 29°56' W 090°12'0 0.0
2017-Jan-02 14:12N 29°56' W 090°12'0 0.0
2017-Jan-02 13:27N 29°56' W 090°12'0 0.0
2017-Jan-02 04:17N 29°56' W 090°12'0 0.0
2017-Jan-02 01:09N 29°56' W 090°12'0 0.1
2017-Jan-01 22:32N 29°55' W 090°12'0 0.1
2017-Jan-01 20:24N 29°56' W 090°12'0 0.0
2017-Jan-01 19:32N 29°56' W 090°12'0 0.0
2017-Jan-01 18:31N 29°56' W 090°12'0 0.0
2017-Jan-01 17:32N 29°56' W 090°12'0 0.0
2017-Jan-01 16:30N 29°56' W 090°12'0 0.0
2017-Jan-01 15:33N 29°56' W 090°12'0 0.0
2017-Jan-01 14:26N 29°56' W 090°12'0 0.0
2017-Jan-01 12:33N 29°56' W 090°12'0 0.0
2017-Jan-01 11:32N 29°56' W 090°12'0 0.0
2017-Jan-01 09:30N 29°56' W 090°12'0 0.0
2017-Jan-01 08:27N 29°56' W 090°12'0 0.0
2017-Jan-01 07:28N 29°56' W 090°12'0 0.0
2017-Jan-01 06:33N 29°56' W 090°12'0 0.0
2017-Jan-01 05:33N 29°56' W 090°12'0 0.0
2017-Jan-01 04:33N 29°56' W 090°12'0 0.0
2017-Jan-01 03:33N 29°56' W 090°12'0 0.0
2017-Jan-01 02:33N 29°56' W 090°12'0 0.0
2017-Jan-01 01:33N 29°56' W 090°12'0 0.0
2017-Jan-01 00:33N 29°56' W 090°12'0 0.0
2016-Dec-31 23:29N 29°56' W 090°12'  
2016-Dec-28 18:07N 29°56' W 090°12'2 2.8
2016-Dec-28 17:29N 29°57' W 090°10'4 3.9
2016-Dec-28 16:32N 29°54' W 090°07'1 0.2
2016-Dec-28 13:19N 29°54' W 090°06'0 0.0
2016-Dec-28 12:33N 29°54' W 090°06'0 0.0
2016-Dec-28 11:33N 29°54' W 090°06'0 0.0
2016-Dec-28 10:33N 29°54' W 090°06'0 0.0
2016-Dec-28 09:33N 29°54' W 090°06'0 0.0
2016-Dec-28 07:09N 29°54' W 090°06'0 0.0
2016-Dec-28 03:22N 29°54' W 090°06'0 0.0
2016-Dec-28 02:28N 29°54' W 090°06'0 0.0
2016-Dec-28 01:25N 29°54' W 090°06'0 0.0
2016-Dec-28 00:33N 29°54' W 090°06'0 0.0
2016-Dec-27 23:31N 29°54' W 090°06'0 0.0
2016-Dec-27 22:33N 29°54' W 090°06'0 0.0
2016-Dec-27 21:33N 29°54' W 090°06'0 0.0
2016-Dec-27 20:32N 29°54' W 090°06'1 0.5
2016-Dec-27 18:24N 29°54' W 090°07'2 2.9
2016-Dec-27 17:33N 29°57' W 090°09'0 0.0
2016-Dec-27 16:33N 29°57' W 090°09'0 0.0
2016-Dec-27 15:33N 29°57' W 090°09'0 0.0
2016-Dec-27 14:33N 29°57' W 090°09'0 0.0
2016-Dec-27 13:33N 29°57' W 090°09'0 0.0
2016-Dec-27 12:33N 29°57' W 090°09'0 0.0
2016-Dec-27 11:33N 29°57' W 090°09'0 0.0
2016-Dec-27 10:33N 29°57' W 090°09'0 0.0
2016-Dec-27 09:33N 29°57' W 090°09'0 0.0
2016-Dec-27 08:33N 29°57' W 090°09'0 0.0
2016-Dec-27 07:33N 29°57' W 090°09'0 0.0
2016-Dec-27 06:33N 29°57' W 090°09'0 0.0
2016-Dec-27 05:33N 29°57' W 090°09'0 0.0
2016-Dec-27 04:33N 29°57' W 090°09'0 0.1
2016-Dec-27 03:33N 29°57' W 090°08'1 0.6
2016-Dec-27 02:33N 29°57' W 090°09'4 3.8
2016-Dec-27 01:28N 29°57' W 090°13'1 1.6
2016-Dec-27 00:33N 29°58' W 090°15'0 0.2
2016-Dec-26 23:33N 29°58' W 090°15'0 0.1
2016-Dec-26 22:33N 29°58' W 090°15'0 0.1
2016-Dec-26 21:33N 29°58' W 090°15'0 0.1
2016-Dec-26 20:33N 29°58' W 090°15'0 0.2
2016-Dec-26 19:33N 29°58' W 090°14'0 0.2
2016-Dec-26 18:33N 29°58' W 090°14'1 0.6
2016-Dec-26 17:33N 29°58' W 090°15'1 1.4
2016-Dec-26 16:33N 29°57' W 090°14'1 0.8
2016-Dec-26 15:33N 29°58' W 090°14'1 0.8
2016-Dec-26 14:33N 29°57' W 090°14'0 0.0
2016-Dec-26 13:33N 29°57' W 090°14'0 0.0
2016-Dec-26 12:33N 29°57' W 090°14'0 0.0
2016-Dec-26 11:33N 29°57' W 090°14'0 0.1
2016-Dec-26 10:33N 29°57' W 090°14'0 0.0
2016-Dec-26 09:33N 29°57' W 090°14'1 1.3
2016-Dec-26 08:33N 29°58' W 090°15'0 0.0
2016-Dec-26 07:33N 29°58' W 090°15'0 0.1
2016-Dec-26 06:33N 29°58' W 090°15'0 0.3
2016-Dec-26 05:31N 29°58' W 090°14'1 0.8
2016-Dec-26 04:23N 29°57' W 090°14'1 0.8
2016-Dec-26 03:33N 29°58' W 090°14'2 2.0
2016-Dec-26 02:32N 29°56' W 090°13'3 2.9
2016-Dec-26 01:33N 29°57' W 090°10'1 1.2
2016-Dec-26 00:33N 29°57' W 090°09'2 2.3
2016-Dec-25 23:31N 29°56' W 090°11'3 2.9
2016-Dec-25 22:33N 29°57' W 090°14'3 3.0
2016-Dec-25 21:33N 29°56' W 090°10'2 1.7
2016-Dec-25 20:33N 29°57' W 090°08'2 2.3
2016-Dec-25 19:33N 29°56' W 090°11'3 3.3
2016-Dec-25 18:33N 29°58' W 090°14'0 0.2
2016-Dec-25 17:27N 29°58' W 090°14'  
Track history (hours):
 
Tides and Currents Weather Stations Pressure Air Temp Water Temp Dewpoint Dewpoint Depression Visibility Wind Speed Wind Dir Waves Ship Positions

Jena Marie C.

Owner: Scott C. Marine Towing, LLC, Marrero, LA. More information available from US FCC via Universal Licensing System and Coast Guard Vessel Documentation Center.

Last reported at 2017-Jan-04 12:32 UTC. Time now 2017-Mar-23 14:25 UTC.
Position N 29°56' W 090°12'.
Warning: this ship's position is months out of date.

Length 19 m; draft 2.5 m.

Type: Towing. MMSI: 367151880.

Date/timePositionNaut miles runAvg speedWind from/ knotsBaromVisibWave heightAir tempDewpointWater temp
2017-Jan-04 12:32N 29°56' W 090°12'0 0.0
2017-Jan-04 09:30N 29°56' W 090°12'3 3.3
2017-Jan-04 08:33N 29°57' W 090°09'2 0.0
2017-Jan-02 17:33N 29°56' W 090°08'3 2.9
2017-Jan-02 16:24N 29°56' W 090°12'0 0.3
2017-Jan-02 15:33N 29°56' W 090°12'0 0.0
2017-Jan-02 14:12N 29°56' W 090°12'0 0.0
2017-Jan-02 13:27N 29°56' W 090°12'0 0.0
2017-Jan-02 04:17N 29°56' W 090°12'0 0.0
2017-Jan-02 01:09N 29°56' W 090°12'0 0.1
2017-Jan-01 22:32N 29°55' W 090°12'0 0.1
2017-Jan-01 20:24N 29°56' W 090°12'0 0.0
2017-Jan-01 19:32N 29°56' W 090°12'0 0.0
2017-Jan-01 18:31N 29°56' W 090°12'0 0.0
2017-Jan-01 17:32N 29°56' W 090°12'0 0.0
2017-Jan-01 16:30N 29°56' W 090°12'0 0.0
2017-Jan-01 15:33N 29°56' W 090°12'0 0.0
2017-Jan-01 14:26N 29°56' W 090°12'0 0.0
2017-Jan-01 12:33N 29°56' W 090°12'0 0.0
2017-Jan-01 11:32N 29°56' W 090°12'0 0.0
2017-Jan-01 09:30N 29°56' W 090°12'0 0.0
2017-Jan-01 08:27N 29°56' W 090°12'0 0.0
2017-Jan-01 07:28N 29°56' W 090°12'0 0.0
2017-Jan-01 06:33N 29°56' W 090°12'0 0.0
2017-Jan-01 05:33N 29°56' W 090°12'0 0.0
2017-Jan-01 04:33N 29°56' W 090°12'0 0.0
2017-Jan-01 03:33N 29°56' W 090°12'0 0.0
2017-Jan-01 02:33N 29°56' W 090°12'0 0.0
2017-Jan-01 01:33N 29°56' W 090°12'0 0.0
2017-Jan-01 00:33N 29°56' W 090°12'0 0.0
2016-Dec-31 23:29N 29°56' W 090°12'  
2016-Dec-28 18:07N 29°56' W 090°12'2 2.8
2016-Dec-28 17:29N 29°57' W 090°10'4 3.9
2016-Dec-28 16:32N 29°54' W 090°07'1 0.2
2016-Dec-28 13:19N 29°54' W 090°06'0 0.0
2016-Dec-28 12:33N 29°54' W 090°06'0 0.0
2016-Dec-28 11:33N 29°54' W 090°06'0 0.0
2016-Dec-28 10:33N 29°54' W 090°06'0 0.0
2016-Dec-28 09:33N 29°54' W 090°06'0 0.0
2016-Dec-28 07:09N 29°54' W 090°06'0 0.0
2016-Dec-28 03:22N 29°54' W 090°06'0 0.0
2016-Dec-28 02:28N 29°54' W 090°06'0 0.0
2016-Dec-28 01:25N 29°54' W 090°06'0 0.0
2016-Dec-28 00:33N 29°54' W 090°06'0 0.0
2016-Dec-27 23:31N 29°54' W 090°06'0 0.0
2016-Dec-27 22:33N 29°54' W 090°06'0 0.0
2016-Dec-27 21:33N 29°54' W 090°06'0 0.0
2016-Dec-27 20:32N 29°54' W 090°06'1 0.5
2016-Dec-27 18:24N 29°54' W 090°07'2 2.9
2016-Dec-27 17:33N 29°57' W 090°09'0 0.0
2016-Dec-27 16:33N 29°57' W 090°09'0 0.0
2016-Dec-27 15:33N 29°57' W 090°09'0 0.0
2016-Dec-27 14:33N 29°57' W 090°09'0 0.0
2016-Dec-27 13:33N 29°57' W 090°09'0 0.0
2016-Dec-27 12:33N 29°57' W 090°09'0 0.0
2016-Dec-27 11:33N 29°57' W 090°09'0 0.0
2016-Dec-27 10:33N 29°57' W 090°09'0 0.0
2016-Dec-27 09:33N 29°57' W 090°09'0 0.0
2016-Dec-27 08:33N 29°57' W 090°09'0 0.0
2016-Dec-27 07:33N 29°57' W 090°09'0 0.0
2016-Dec-27 06:33N 29°57' W 090°09'0 0.0
2016-Dec-27 05:33N 29°57' W 090°09'0 0.0
2016-Dec-27 04:33N 29°57' W 090°09'0 0.1
2016-Dec-27 03:33N 29°57' W 090°08'1 0.6
2016-Dec-27 02:33N 29°57' W 090°09'4 3.8
2016-Dec-27 01:28N 29°57' W 090°13'1 1.6
2016-Dec-27 00:33N 29°58' W 090°15'0 0.2
2016-Dec-26 23:33N 29°58' W 090°15'0 0.1
2016-Dec-26 22:33N 29°58' W 090°15'0 0.1
2016-Dec-26 21:33N 29°58' W 090°15'0 0.1
2016-Dec-26 20:33N 29°58' W 090°15'0 0.2
2016-Dec-26 19:33N 29°58' W 090°14'0 0.2
2016-Dec-26 18:33N 29°58' W 090°14'1 0.6
2016-Dec-26 17:33N 29°58' W 090°15'1 1.4
2016-Dec-26 16:33N 29°57' W 090°14'1 0.8
2016-Dec-26 15:33N 29°58' W 090°14'1 0.8
2016-Dec-26 14:33N 29°57' W 090°14'0 0.0
2016-Dec-26 13:33N 29°57' W 090°14'0 0.0
2016-Dec-26 12:33N 29°57' W 090°14'0 0.0
2016-Dec-26 11:33N 29°57' W 090°14'0 0.1
2016-Dec-26 10:33N 29°57' W 090°14'0 0.0
2016-Dec-26 09:33N 29°57' W 090°14'1 1.3
2016-Dec-26 08:33N 29°58' W 090°15'0 0.0
2016-Dec-26 07:33N 29°58' W 090°15'0 0.1
2016-Dec-26 06:33N 29°58' W 090°15'0 0.3
2016-Dec-26 05:31N 29°58' W 090°14'1 0.8
2016-Dec-26 04:23N 29°57' W 090°14'1 0.8
2016-Dec-26 03:33N 29°58' W 090°14'2 2.0
2016-Dec-26 02:32N 29°56' W 090°13'3 2.9
2016-Dec-26 01:33N 29°57' W 090°10'1 1.2
2016-Dec-26 00:33N 29°57' W 090°09'2 2.3
2016-Dec-25 23:31N 29°56' W 090°11'3 2.9
2016-Dec-25 22:33N 29°57' W 090°14'3 3.0
2016-Dec-25 21:33N 29°56' W 090°10'2 1.7
2016-Dec-25 20:33N 29°57' W 090°08'2 2.3
2016-Dec-25 19:33N 29°56' W 090°11'3 3.3
2016-Dec-25 18:33N 29°58' W 090°14'0 0.2
2016-Dec-25 17:27N 29°58' W 090°14'  

Dump ship's entire track history